Time;durP1;ratioP1;P1;durP2;ratioP2;P2;SDS_P1;SDS_P2;PMS_P1;PMS_P2;Temp;Humidity;BMP_temperature;BMP_pressure;BME280_temperature;BME280_humidity;BME280_pressure;Samples;Min_cycle;Max_cycle;Signal;HPM_P1;HPM_P2
2023/09/11 00:01:31;;;;;;;35.80;24.55;;;;;;;;;;5008917;28;20388;-78
2023/09/11 00:03:58;;;;;;;33.47;25.95;;;;;;;;;;5014770;28;20045;-78
2023/09/11 00:06:25;;;;;;;41.03;24.55;;;;;;;;;;5034861;28;20744;-78
2023/09/11 00:08:51;;;;;;;32.78;25.52;;;;;;;;;;5034582;28;20101;-78
2023/09/11 00:11:17;;;;;;;35.17;26.27;;;;;;;;;;5017254;28;20068;-77
2023/09/11 00:13:43;;;;;;;33.65;25.40;;;;;;;;;;5002937;28;20040;-78
2023/09/11 00:16:09;;;;;;;31.83;24.98;;;;;;;;;;4998554;28;20055;-78
2023/09/11 00:18:37;;;;;;;31.08;25.90;;;;;;;;;;5010094;28;20047;-78
2023/09/11 00:21:03;;;;;;;35.72;26.27;;;;;;;;;;5032325;28;20428;-78
2023/09/11 00:23:29;;;;;;;35.92;26.52;;;;;;;;;;5035209;28;20051;-78
2023/09/11 00:25:55;;;;;;;32.83;26.27;;;;;;;;;;5027988;28;20072;-77
2023/09/11 00:28:22;;;;;;;29.33;25.05;;;;;;;;;;5027662;28;20277;-78
2023/09/11 00:30:48;;;;;;;31.15;25.13;;;;;;;;;;5018790;28;20048;-78
2023/09/11 00:33:14;;;;;;;32.88;26.60;;;;;;;;;;5032396;28;20040;-78
2023/09/11 00:35:43;;;;;;;32.90;26.73;;;;;;;;;;5035275;28;20109;-78
2023/09/11 00:38:09;;;;;;;36.90;26.60;;;;;;;;;;5030014;28;20220;-78
2023/09/11 00:40:36;;;;;;;33.15;27.65;;;;;;;;;;5012685;28;20401;-78
2023/09/11 00:43:02;;;;;;;34.53;27.40;;;;;;;;;;5030764;28;20053;-78
2023/09/11 00:45:28;;;;;;;38.65;28.42;;;;;;;;;;5006735;28;22616;-78
2023/09/11 00:47:54;;;;;;;39.15;28.65;;;;;;;;;;4996128;28;20147;-78
2023/09/11 00:50:21;;;;;;;39.03;30.67;;;;;;;;;;5017149;28;20048;-78
2023/09/11 00:52:47;;;;;;;40.35;29.90;;;;;;;;;;5011264;28;20045;-77
2023/09/11 00:55:13;;;;;;;34.80;30.10;;;;;;;;;;5024894;28;20516;-78
2023/09/11 00:57:39;;;;;;;35.70;28.40;;;;;;;;;;5011394;28;20052;-77
2023/09/11 01:00:06;;;;;;;35.03;28.65;;;;;;;;;;5009157;28;20048;-79
2023/09/11 01:02:32;;;;;;;41.92;29.35;;;;;;;;;;5009720;28;20127;-78
2023/09/11 01:04:59;;;;;;;40.65;29.75;;;;;;;;;;5007667;28;20450;-78
2023/09/11 01:07:26;;;;;;;37.35;29.42;;;;;;;;;;5031178;28;20633;-78
2023/09/11 01:09:52;;;;;;;37.67;30.38;;;;;;;;;;5011420;28;20056;-78
2023/09/11 01:12:18;;;;;;;36.92;28.60;;;;;;;;;;5028193;28;20040;-78
2023/09/11 01:14:44;;;;;;;36.10;28.77;;;;;;;;;;4999523;28;20492;-78
2023/09/11 01:17:16;;;;;;;47.35;29.65;;;;;;;;;;4999120;28;20421;-78
2023/09/11 01:19:49;;;;;;;35.45;28.88;;;;;;;;;;4995323;28;20465;-77
2023/09/11 01:22:22;;;;;;;44.53;29.27;;;;;;;;;;5026996;28;20048;-77
2023/09/11 01:24:54;;;;;;;36.53;29.75;;;;;;;;;;5006896;28;20052;-76
2023/09/11 01:27:30;;;;;;;40.05;30.40;;;;;;;;;;5004963;28;20049;-77
2023/09/11 01:29:57;;;;;;;43.55;29.15;;;;;;;;;;5024775;28;20045;-77
2023/09/11 01:32:25;;;;;;;37.83;28.65;;;;;;;;;;5009553;28;20492;-77
2023/09/11 01:34:51;;;;;;;39.80;28.20;;;;;;;;;;4992632;28;20450;-78
2023/09/11 01:37:17;;;;;;;35.65;28.45;;;;;;;;;;5006099;28;20047;-77
2023/09/11 01:39:44;;;;;;;32.08;26.75;;;;;;;;;;5008145;28;20052;-77
2023/09/11 01:42:11;;;;;;;33.42;27.02;;;;;;;;;;5024172;28;20068;-77
2023/09/11 01:44:43;;;;;;;35.47;27.30;;;;;;;;;;5027248;28;20493;-78
2023/09/11 01:47:10;;;;;;;31.77;27.45;;;;;;;;;;5010151;28;20091;-78
2023/09/11 01:49:38;;;;;;;39.42;27.83;;;;;;;;;;5007716;28;20049;-78
2023/09/11 01:52:04;;;;;;;38.38;27.70;;;;;;;;;;5024779;28;20041;-78
2023/09/11 01:54:31;;;;;;;33.92;26.10;;;;;;;;;;5008924;28;20067;-78
2023/09/11 01:56:57;;;;;;;32.70;25.27;;;;;;;;;;5022505;28;20072;-78
2023/09/11 01:59:24;;;;;;;38.35;26.38;;;;;;;;;;5007546;28;20041;-77
2023/09/11 02:01:50;;;;;;;37.55;25.30;;;;;;;;;;5005998;28;20045;-78
2023/09/11 02:04:16;;;;;;;42.88;25.75;;;;;;;;;;4993276;28;20070;-77
2023/09/11 02:06:43;;;;;;;38.72;24.13;;;;;;;;;;5026971;28;20045;-78
2023/09/11 02:09:09;;;;;;;33.78;23.05;;;;;;;;;;5011435;28;20131;-78
2023/09/11 02:11:35;;;;;;;32.80;24.98;;;;;;;;;;5031475;28;20045;-77
2023/09/11 02:14:01;;;;;;;33.42;24.23;;;;;;;;;;5030211;28;20120;-78
2023/09/11 02:16:27;;;;;;;36.00;25.02;;;;;;;;;;4995099;28;21098;-78
2023/09/11 02:18:53;;;;;;;38.58;25.08;;;;;;;;;;5012459;28;20045;-78
2023/09/11 02:21:19;;;;;;;32.25;24.00;;;;;;;;;;5026470;28;20087;-77
2023/09/11 02:23:46;;;;;;;32.35;25.20;;;;;;;;;;5010811;28;20044;-77
2023/09/11 02:26:12;;;;;;;33.47;23.88;;;;;;;;;;5008826;28;20041;-78
2023/09/11 02:28:38;;;;;;;33.70;24.55;;;;;;;;;;5008432;28;20515;-78
2023/09/11 02:31:04;;;;;;;33.75;23.88;;;;;;;;;;5012858;28;20063;-78
2023/09/11 02:33:30;;;;;;;35.45;24.10;;;;;;;;;;5023310;28;21085;-77
2023/09/11 02:36:02;;;;;;;35.40;23.55;;;;;;;;;;5026856;28;20043;-77
2023/09/11 02:38:29;;;;;;;29.35;22.70;;;;;;;;;;5008873;28;20053;-77
2023/09/11 02:40:55;;;;;;;35.08;24.48;;;;;;;;;;5011141;28;20512;-77
2023/09/11 02:43:21;;;;;;;38.00;26.48;;;;;;;;;;5025926;28;20045;-77
2023/09/11 02:45:47;;;;;;;47.97;25.67;;;;;;;;;;5028704;28;20630;-77
2023/09/11 02:48:14;;;;;;;31.30;24.70;;;;;;;;;;4998687;28;20048;-77
2023/09/11 02:50:40;;;;;;;33.83;25.17;;;;;;;;;;5008713;28;20075;-77
2023/09/11 02:53:08;;;;;;;35.05;25.38;;;;;;;;;;5012064;28;20381;-77
2023/09/11 02:55:37;;;;;;;32.50;25.48;;;;;;;;;;5024114;28;20091;-77
2023/09/11 02:58:03;;;;;;;37.90;26.17;;;;;;;;;;5019059;28;20048;-77
2023/09/11 03:00:30;;;;;;;33.33;24.83;;;;;;;;;;4996189;28;20123;-77
2023/09/11 03:02:56;;;;;;;31.50;25.88;;;;;;;;;;5027118;28;20560;-77
2023/09/11 03:05:23;;;;;;;30.15;25.67;;;;;;;;;;5002026;28;20463;-77
2023/09/11 03:07:49;;;;;;;33.70;25.52;;;;;;;;;;5026434;28;20091;-77
2023/09/11 03:10:15;;;;;;;37.78;25.95;;;;;;;;;;5024416;28;20195;-77
2023/09/11 03:12:41;;;;;;;31.50;23.48;;;;;;;;;;5021703;28;20138;-77
2023/09/11 03:15:07;;;;;;;33.22;23.42;;;;;;;;;;5021605;28;20036;-78
2023/09/11 03:17:33;;;;;;;29.67;23.90;;;;;;;;;;5005815;28;20063;-78
2023/09/11 03:19:59;;;;;;;35.97;23.63;;;;;;;;;;5025813;28;20501;-77
2023/09/11 03:22:25;;;;;;;35.33;23.33;;;;;;;;;;5027092;28;20139;-77
2023/09/11 03:24:51;;;;;;;30.85;22.77;;;;;;;;;;5008972;28;20403;-77
2023/09/11 03:27:18;;;;;;;32.05;22.40;;;;;;;;;;5027657;28;20052;-77
2023/09/11 03:29:44;;;;;;;29.05;23.35;;;;;;;;;;5023562;28;20758;-77
2023/09/11 03:32:10;;;;;;;33.35;24.10;;;;;;;;;;5022401;28;20397;-78
2023/09/11 03:34:36;;;;;;;32.25;25.00;;;;;;;;;;4989888;28;20545;-78
2023/09/11 03:37:02;;;;;;;38.13;25.10;;;;;;;;;;5020778;28;20037;-78
2023/09/11 03:39:28;;;;;;;35.05;24.77;;;;;;;;;;5022960;28;20710;-77
2023/09/11 03:41:54;;;;;;;32.75;24.67;;;;;;;;;;5005479;28;20071;-77
2023/09/11 03:44:20;;;;;;;32.85;24.27;;;;;;;;;;5023093;28;20492;-78
2023/09/11 03:46:46;;;;;;;33.47;26.33;;;;;;;;;;4986766;28;20090;-77
2023/09/11 03:49:12;;;;;;;35.30;24.92;;;;;;;;;;5000974;28;20044;-77
2023/09/11 03:51:38;;;;;;;37.50;25.23;;;;;;;;;;4985916;28;20493;-77
2023/09/11 03:54:11;;;;;;;30.25;26.00;;;;;;;;;;5020166;28;20040;-77
2023/09/11 03:56:37;;;;;;;34.85;24.40;;;;;;;;;;5007456;28;20127;-77
2023/09/11 03:59:03;;;;;;;38.78;24.42;;;;;;;;;;5005120;28;20044;-77
2023/09/11 04:01:29;;;;;;;37.28;25.45;;;;;;;;;;4991624;28;20183;-78
2023/09/11 04:03:55;;;;;;;35.85;25.33;;;;;;;;;;5010525;28;20053;-77
2023/09/11 04:06:21;;;;;;;33.92;25.00;;;;;;;;;;5022777;28;20048;-77
2023/09/11 04:08:48;;;;;;;31.90;25.10;;;;;;;;;;5006429;28;20087;-78
2023/09/11 04:11:15;;;;;;;36.80;24.70;;;;;;;;;;5033593;28;20124;-78
2023/09/11 04:13:41;;;;;;;32.25;23.55;;;;;;;;;;5024254;28;20119;-79
2023/09/11 04:16:07;;;;;;;34.08;23.17;;;;;;;;;;4997835;28;20098;-78
2023/09/11 04:18:33;;;;;;;32.58;24.35;;;;;;;;;;5013029;28;20056;-78
2023/09/11 04:21:03;;;;;;;38.45;26.10;;;;;;;;;;4996978;28;20059;-78
2023/09/11 04:23:29;;;;;;;35.88;24.95;;;;;;;;;;5027459;28;20164;-78
2023/09/11 04:25:56;;;;;;;36.05;25.98;;;;;;;;;;5032602;28;20041;-77
2023/09/11 04:28:22;;;;;;;32.95;25.17;;;;;;;;;;5031238;28;20044;-77
2023/09/11 04:30:48;;;;;;;33.13;26.35;;;;;;;;;;5012567;28;20127;-78
2023/09/11 04:33:14;;;;;;;34.38;25.40;;;;;;;;;;5011983;28;20048;-78
2023/09/11 04:35:40;;;;;;;36.20;25.60;;;;;;;;;;5034166;28;20106;-79
2023/09/11 04:38:06;;;;;;;35.03;25.05;;;;;;;;;;5016422;28;20481;-78
2023/09/11 04:40:32;;;;;;;30.70;24.77;;;;;;;;;;5015535;28;20080;-78
2023/09/11 04:42:58;;;;;;;30.90;24.80;;;;;;;;;;5018098;28;20144;-78
2023/09/11 04:45:24;;;;;;;37.60;26.15;;;;;;;;;;5032109;28;20033;-79
2023/09/11 04:47:51;;;;;;;33.72;24.65;;;;;;;;;;5022459;28;20383;-78
2023/09/11 04:50:17;;;;;;;34.47;25.52;;;;;;;;;;5036441;28;20522;-77
2023/09/11 04:52:43;;;;;;;36.60;25.67;;;;;;;;;;5001068;28;20060;-78
2023/09/11 04:55:09;;;;;;;41.03;25.08;;;;;;;;;;5016123;28;20098;-78
2023/09/11 04:57:36;;;;;;;43.30;23.48;;;;;;;;;;5020144;28;20566;-78
2023/09/11 05:00:09;;;;;;;31.55;24.40;;;;;;;;;;4993244;28;20048;-78
2023/09/11 05:02:35;;;;;;;39.70;25.45;;;;;;;;;;5015314;28;20540;-78
2023/09/11 05:05:03;;;;;;;33.13;23.83;;;;;;;;;;5018981;28;20093;-78
2023/09/11 05:07:29;;;;;;;41.08;25.63;;;;;;;;;;5004347;28;20099;-79
2023/09/11 05:09:55;;;;;;;36.67;25.33;;;;;;;;;;5020048;28;20585;-79
2023/09/11 05:12:21;;;;;;;32.10;24.17;;;;;;;;;;5035548;28;20511;-79
2023/09/11 05:14:48;;;;;;;37.53;24.48;;;;;;;;;;5035674;28;20048;-79
2023/09/11 05:17:14;;;;;;;36.33;24.75;;;;;;;;;;5030926;28;20047;-78
2023/09/11 05:19:40;;;;;;;33.85;23.50;;;;;;;;;;5020877;28;20041;-78
2023/09/11 05:22:06;;;;;;;31.17;23.23;;;;;;;;;;5022920;28;20655;-78
2023/09/11 05:24:33;;;;;;;28.77;21.77;;;;;;;;;;5019092;28;20139;-79
2023/09/11 05:26:59;;;;;;;38.22;23.30;;;;;;;;;;5005238;28;20040;-79
2023/09/11 05:29:25;;;;;;;36.78;23.33;;;;;;;;;;5018864;28;20040;-79
2023/09/11 05:31:51;;;;;;;39.83;22.85;;;;;;;;;;5019383;28;20524;-78
2023/09/11 05:34:17;;;;;;;31.65;21.98;;;;;;;;;;5028018;28;20052;-78
2023/09/11 05:36:44;;;;;;;29.90;21.38;;;;;;;;;;5008166;28;20040;-80
2023/09/11 05:39:10;;;;;;;34.15;22.52;;;;;;;;;;5020226;28;20044;-80
2023/09/11 05:41:36;;;;;;;29.98;21.10;;;;;;;;;;5039006;28;20041;-81
2023/09/11 05:44:03;;;;;;;27.00;22.10;;;;;;;;;;5025651;28;20048;-80
2023/09/11 05:46:29;;;;;;;33.80;22.25;;;;;;;;;;5019038;28;20757;-79
2023/09/11 05:48:56;;;;;;;34.05;21.42;;;;;;;;;;4998100;28;20397;-77
2023/09/11 05:51:22;;;;;;;32.70;20.50;;;;;;;;;;5034924;28;20055;-79
2023/09/11 05:53:48;;;;;;;40.25;21.45;;;;;;;;;;5012691;28;20585;-78
2023/09/11 05:56:14;;;;;;;32.88;20.38;;;;;;;;;;5034376;28;20153;-78
2023/09/11 05:58:41;;;;;;;29.08;20.25;;;;;;;;;;5015545;28;20084;-78
2023/09/11 06:01:08;;;;;;;41.22;20.15;;;;;;;;;;5006223;28;20231;-75
2023/09/11 06:03:34;;;;;;;30.35;19.90;;;;;;;;;;5034559;28;20048;-74
2023/09/11 06:06:00;;;;;;;32.67;20.35;;;;;;;;;;5014554;28;20044;-73
2023/09/11 06:08:26;;;;;;;34.88;19.73;;;;;;;;;;5033487;28;20048;-73
2023/09/11 06:10:52;;;;;;;30.73;19.55;;;;;;;;;;5015635;28;20056;-73
2023/09/11 06:13:19;;;;;;;31.45;18.42;;;;;;;;;;4999994;28;20076;-73
2023/09/11 06:15:45;;;;;;;37.97;20.02;;;;;;;;;;5025061;28;20270;-73
2023/09/11 06:18:11;;;;;;;31.98;18.17;;;;;;;;;;5039570;28;20036;-73
2023/09/11 06:20:37;;;;;;;32.47;19.65;;;;;;;;;;5036268;28;20052;-73
2023/09/11 06:23:03;;;;;;;30.35;18.80;;;;;;;;;;5035732;28;20052;-73
2023/09/11 06:25:29;;;;;;;30.77;18.55;;;;;;;;;;5036450;28;20045;-73
2023/09/11 06:27:57;;;;;;;24.05;18.05;;;;;;;;;;5037675;28;20040;-73
2023/09/11 06:30:23;;;;;;;31.63;17.73;;;;;;;;;;5021428;28;20048;-72
2023/09/11 06:32:49;;;;;;;32.60;17.80;;;;;;;;;;5014628;28;20047;-73
2023/09/11 06:35:17;;;;;;;31.52;18.30;;;;;;;;;;5015725;28;20079;-72
2023/09/11 06:37:43;;;;;;;28.67;17.48;;;;;;;;;;5016750;28;20041;-73
2023/09/11 06:40:11;;;;;;;30.10;17.13;;;;;;;;;;5034175;28;20117;-73
2023/09/11 06:42:40;;;;;;;29.58;16.67;;;;;;;;;;5036413;28;20041;-73
2023/09/11 06:45:06;;;;;;;39.60;19.10;;;;;;;;;;5034841;28;20083;-73
2023/09/11 06:47:32;;;;;;;29.75;17.88;;;;;;;;;;5017083;28;20194;-73
2023/09/11 06:49:59;;;;;;;29.52;16.05;;;;;;;;;;5020784;28;20106;-74
2023/09/11 06:52:25;;;;;;;32.08;16.50;;;;;;;;;;5038062;28;20041;-73
2023/09/11 06:54:53;;;;;;;26.75;16.75;;;;;;;;;;5033271;28;20060;-74
2023/09/11 06:57:19;;;;;;;26.52;17.00;;;;;;;;;;5022508;28;20048;-73
2023/09/11 06:59:45;;;;;;;31.48;16.48;;;;;;;;;;5019904;28;20501;-73
2023/09/11 07:02:11;;;;;;;33.70;16.67;;;;;;;;;;5037462;28;20044;-73
2023/09/11 07:04:37;;;;;;;37.00;18.10;;;;;;;;;;5037753;28;20048;-74
2023/09/11 07:07:03;;;;;;;38.38;16.65;;;;;;;;;;5037816;28;20136;-73
2023/09/11 07:09:30;;;;;;;38.97;16.58;;;;;;;;;;5021856;28;20045;-73
2023/09/11 07:11:56;;;;;;;30.77;17.45;;;;;;;;;;5036053;28;20044;-73
2023/09/11 07:14:23;;;;;;;26.52;15.85;;;;;;;;;;5036256;28;20136;-73
2023/09/11 07:16:50;;;;;;;31.67;17.08;;;;;;;;;;5019782;28;20036;-73
2023/09/11 07:19:16;;;;;;;34.00;18.00;;;;;;;;;;5035800;28;20507;-74
2023/09/11 07:21:44;;;;;;;32.80;17.15;;;;;;;;;;5035144;28;20048;-73
2023/09/11 07:24:11;;;;;;;34.63;16.13;;;;;;;;;;5037112;28;20558;-74
2023/09/11 07:26:37;;;;;;;33.22;16.10;;;;;;;;;;5018162;28;20493;-73
2023/09/11 07:29:03;;;;;;;28.40;16.20;;;;;;;;;;5037071;28;20114;-74
2023/09/11 07:31:30;;;;;;;32.00;16.08;;;;;;;;;;5039217;28;20131;-73
2023/09/11 07:33:57;;;;;;;32.63;15.63;;;;;;;;;;5037302;28;20029;-73
2023/09/11 07:36:23;;;;;;;30.77;15.50;;;;;;;;;;5034573;28;20068;-73
2023/09/11 07:38:49;;;;;;;28.52;15.00;;;;;;;;;;5038011;28;20449;-72
2023/09/11 07:41:16;;;;;;;30.73;15.93;;;;;;;;;;5019014;28;20063;-73
2023/09/11 07:43:46;;;;;;;28.45;15.07;;;;;;;;;;5019666;28;20053;-73
2023/09/11 07:46:12;;;;;;;31.80;15.15;;;;;;;;;;5019575;28;20507;-73
2023/09/11 07:48:38;;;;;;;28.13;14.82;;;;;;;;;;5019840;28;20135;-73
2023/09/11 07:51:04;;;;;;;25.63;14.35;;;;;;;;;;5017870;28;20119;-73
2023/09/11 07:53:30;;;;;;;35.65;15.15;;;;;;;;;;5039717;28;20161;-73
2023/09/11 07:55:57;;;;;;;26.23;16.48;;;;;;;;;;5018102;28;20528;-74
2023/09/11 07:58:23;;;;;;;24.15;13.65;;;;;;;;;;5038102;28;20082;-74
2023/09/11 08:00:49;;;;;;;27.38;14.27;;;;;;;;;;5037806;28;20692;-75
2023/09/11 08:03:15;;;;;;;24.50;13.55;;;;;;;;;;5020954;28;20045;-73
2023/09/11 08:05:41;;;;;;;37.63;13.70;;;;;;;;;;5018764;28;20370;-73
2023/09/11 08:08:07;;;;;;;24.65;13.35;;;;;;;;;;5037358;28;20071;-73
2023/09/11 08:10:34;;;;;;;26.77;13.70;;;;;;;;;;5037018;28;20041;-74
2023/09/11 08:13:00;;;;;;;24.15;14.30;;;;;;;;;;5037388;28;20048;-73
2023/09/11 08:15:28;;;;;;;24.80;14.48;;;;;;;;;;5037932;28;20041;-74
2023/09/11 08:17:54;;;;;;;34.40;13.88;;;;;;;;;;5037212;28;20044;-73
2023/09/11 08:20:20;;;;;;;29.50;15.02;;;;;;;;;;5038586;28;20098;-74
2023/09/11 08:22:46;;;;;;;26.70;14.63;;;;;;;;;;5038652;28;20572;-74
2023/09/11 08:25:13;;;;;;;29.92;14.80;;;;;;;;;;5037819;28;20053;-73
2023/09/11 08:27:39;;;;;;;21.63;13.80;;;;;;;;;;5039472;28;20063;-73
2023/09/11 08:30:06;;;;;;;29.88;15.18;;;;;;;;;;5036136;28;20182;-73
2023/09/11 08:32:35;;;;;;;41.33;14.70;;;;;;;;;;5037788;28;20055;-73
2023/09/11 08:35:02;;;;;;;28.13;14.38;;;;;;;;;;5019127;28;20037;-73
2023/09/11 08:37:28;;;;;;;25.77;14.02;;;;;;;;;;5037233;28;20052;-73
2023/09/11 08:39:55;;;;;;;26.60;13.38;;;;;;;;;;5018838;28;20049;-72
2023/09/11 08:42:21;;;;;;;27.20;13.18;;;;;;;;;;5036355;28;20102;-73
2023/09/11 08:44:47;;;;;;;28.67;12.55;;;;;;;;;;5038300;28;20416;-73
2023/09/11 08:47:14;;;;;;;21.98;10.85;;;;;;;;;;5036477;28;20045;-73
2023/09/11 08:49:44;;;;;;;23.40;11.82;;;;;;;;;;5018399;28;20049;-72
2023/09/11 08:52:14;;;;;;;22.02;11.20;;;;;;;;;;5019728;28;20044;-73
2023/09/11 08:54:44;;;;;;;25.35;11.10;;;;;;;;;;5022778;28;20109;-73
2023/09/11 08:57:15;;;;;;;22.27;11.52;;;;;;;;;;5023910;28;20110;-73
2023/09/11 08:59:44;;;;;;;25.63;11.60;;;;;;;;;;5039883;28;20072;-74
2023/09/11 09:02:11;;;;;;;15.93;9.93;;;;;;;;;;5041016;28;20032;-73
2023/09/11 09:04:38;;;;;;;20.60;10.05;;;;;;;;;;5040113;28;20036;-73
2023/09/11 09:07:06;;;;;;;29.40;10.23;;;;;;;;;;5040336;28;20044;-73
2023/09/11 09:09:33;;;;;;;19.55;9.57;;;;;;;;;;5041840;28;20045;-74
2023/09/11 09:11:59;;;;;;;22.73;9.40;;;;;;;;;;5030405;28;20044;-73
2023/09/11 09:14:28;;;;;;;24.33;10.20;;;;;;;;;;5043197;28;20036;-74
2023/09/11 09:16:54;;;;;;;19.80;8.38;;;;;;;;;;5046646;28;20417;-74
2023/09/11 09:19:20;;;;;;;20.80;9.55;;;;;;;;;;5054263;28;20443;-74
2023/09/11 09:22:02;;;;;;;15.23;7.53;;;;;;;;;;5050270;28;20056;-74
2023/09/11 09:24:28;;;;;;;19.88;7.60;;;;;;;;;;5038784;28;20537;-74
2023/09/11 09:26:58;;;;;;;20.33;8.23;;;;;;;;;;5006511;28;20045;-73
2023/09/11 09:29:24;;;;;;;10.30;5.95;;;;;;;;;;5044933;28;20131;-73
2023/09/11 09:31:50;;;;;;;16.65;7.55;;;;;;;;;;5030569;28;20032;-73
2023/09/11 09:34:17;;;;;;;13.32;6.63;;;;;;;;;;5042373;28;20040;-73
2023/09/11 09:36:55;;;;;;;16.50;7.22;;;;;;;;;;5041829;28;20037;-74
2023/09/11 09:39:27;;;;;;;23.95;8.07;;;;;;;;;;5021705;28;20055;-73
2023/09/11 09:42:01;;;;;;;16.70;7.40;;;;;;;;;;5042194;28;20044;-74
2023/09/11 09:44:52;;;;;;;24.70;7.00;;;;;;;;;;5021830;28;20048;-73
2023/09/11 09:47:19;;;;;;;19.15;7.43;;;;;;;;;;5039632;28;20044;-74
2023/09/11 09:49:55;;;;;;;21.13;7.95;;;;;;;;;;5040334;28;20045;-73
2023/09/11 09:52:31;;;;;;;19.23;7.65;;;;;;;;;;5022350;28;20044;-73
2023/09/11 09:54:58;;;;;;;21.83;7.43;;;;;;;;;;5039795;28;20642;-73
2023/09/11 09:57:25;;;;;;;13.60;7.25;;;;;;;;;;5022435;28;20051;-73
2023/09/11 09:59:53;;;;;;;19.08;7.88;;;;;;;;;;5026077;28;20045;-73
2023/09/11 10:02:33;;;;;;;19.20;7.32;;;;;;;;;;5039528;28;20049;-74
2023/09/11 10:05:07;;;;;;;15.07;7.47;;;;;;;;;;5038207;28;20040;-73
2023/09/11 10:07:42;;;;;;;21.85;7.50;;;;;;;;;;5021805;28;20112;-73
2023/09/11 10:10:28;;;;;;;15.85;7.07;;;;;;;;;;5039870;28;20048;-74
2023/09/11 10:13:03;;;;;;;15.70;6.60;;;;;;;;;;5038763;28;20164;-73
2023/09/11 10:15:29;;;;;;;20.02;6.75;;;;;;;;;;5040156;28;20040;-74
2023/09/11 10:17:56;;;;;;;16.38;6.97;;;;;;;;;;5039052;28;20048;-73
2023/09/11 10:20:22;;;;;;;17.92;6.70;;;;;;;;;;5037863;28;20626;-73
2023/09/11 10:22:49;;;;;;;16.67;6.60;;;;;;;;;;5036171;28;20044;-73
2023/09/11 10:25:17;;;;;;;18.17;6.80;;;;;;;;;;5038319;28;20049;-73
2023/09/11 10:27:44;;;;;;;10.75;6.90;;;;;;;;;;5020622;28;20037;-73
2023/09/11 10:30:13;;;;;;;19.63;7.00;;;;;;;;;;5036882;28;20132;-73
2023/09/11 10:32:46;;;;;;;19.58;8.32;;;;;;;;;;5021694;28;20117;-74
2023/09/11 10:35:12;;;;;;;19.63;7.25;;;;;;;;;;5039378;28;20066;-73
2023/09/11 10:37:41;;;;;;;18.15;7.25;;;;;;;;;;5036970;28;21666;-73
2023/09/11 10:40:08;;;;;;;15.95;7.50;;;;;;;;;;5037426;28;20044;-73
2023/09/11 10:42:35;;;;;;;18.45;6.85;;;;;;;;;;5040244;28;20048;-74
2023/09/11 10:45:03;;;;;;;19.98;7.95;;;;;;;;;;5020061;28;20513;-74
2023/09/11 10:47:29;;;;;;;16.08;7.38;;;;;;;;;;5037874;28;21027;-74
2023/09/11 10:49:59;;;;;;;17.05;7.38;;;;;;;;;;5040144;28;20048;-74
2023/09/11 10:52:25;;;;;;;18.05;6.88;;;;;;;;;;5037958;28;20140;-74
2023/09/11 10:54:51;;;;;;;20.13;7.10;;;;;;;;;;5035023;28;20572;-75
2023/09/11 10:57:17;;;;;;;14.90;7.18;;;;;;;;;;5015734;28;20051;-74
2023/09/11 10:59:43;;;;;;;20.27;7.75;;;;;;;;;;5016811;28;20076;-74
2023/09/11 11:02:09;;;;;;;13.50;6.93;;;;;;;;;;5034747;28;20133;-74
2023/09/11 11:04:36;;;;;;;17.10;7.78;;;;;;;;;;5017995;28;20070;-74
2023/09/11 11:07:02;;;;;;;21.10;7.88;;;;;;;;;;5033862;28;20466;-74
2023/09/11 11:09:32;;;;;;;13.63;6.22;;;;;;;;;;5016927;28;20497;-73
2023/09/11 11:12:13;;;;;;;14.88;6.20;;;;;;;;;;5017262;28;21127;-74
2023/09/11 11:14:39;;;;;;;16.05;6.32;;;;;;;;;;5035355;28;20044;-74
2023/09/11 11:17:10;;;;;;;17.85;7.45;;;;;;;;;;5035445;28;20044;-75
2023/09/11 11:19:59;;;;;;;12.63;7.10;;;;;;;;;;5034886;28;20086;-74
2023/09/11 11:22:29;;;;;;;12.00;6.18;;;;;;;;;;5023381;28;20780;-74
2023/09/11 11:24:55;;;;;;;12.73;5.88;;;;;;;;;;5015486;28;20521;-75
2023/09/11 11:27:22;;;;;;;16.90;6.50;;;;;;;;;;4999131;28;20488;-74
2023/09/11 11:29:48;;;;;;;12.05;6.32;;;;;;;;;;5034028;28;20049;-76
2023/09/11 11:32:15;;;;;;;15.23;7.10;;;;;;;;;;5033651;28;20043;-74
2023/09/11 11:34:41;;;;;;;14.02;6.78;;;;;;;;;;5032607;28;20047;-75
2023/09/11 11:37:10;;;;;;;15.50;6.90;;;;;;;;;;5031915;28;20261;-75
2023/09/11 11:39:37;;;;;;;12.27;6.20;;;;;;;;;;5030132;28;20485;-80
2023/09/11 11:42:03;;;;;;;12.57;6.43;;;;;;;;;;5036919;28;20044;-75
2023/09/11 11:44:33;;;;;;;13.63;7.13;;;;;;;;;;5036388;28;20139;-75
2023/09/11 11:46:59;;;;;;;11.50;6.25;;;;;;;;;;5023640;28;20397;-74
2023/09/11 11:49:25;;;;;;;16.05;6.63;;;;;;;;;;5019356;28;20064;-75
2023/09/11 11:51:52;;;;;;;14.57;6.20;;;;;;;;;;5020287;28;20044;-75
2023/09/11 11:54:21;;;;;;;15.90;6.65;;;;;;;;;;5037623;28;20112;-74
2023/09/11 11:56:48;;;;;;;16.80;7.10;;;;;;;;;;5035860;28;20049;-74
2023/09/11 11:59:14;;;;;;;14.30;7.32;;;;;;;;;;5026832;28;20076;-75
2023/09/11 12:01:43;;;;;;;13.63;7.25;;;;;;;;;;5033842;28;20063;-75
2023/09/11 12:04:09;;;;;;;13.65;7.32;;;;;;;;;;5013657;28;20398;-75
2023/09/11 12:06:36;;;;;;;13.02;7.63;;;;;;;;;;5014370;28;20136;-74
2023/09/11 12:09:03;;;;;;;21.98;8.90;;;;;;;;;;5029379;28;20092;-75
2023/09/11 12:11:30;;;;;;;16.27;8.27;;;;;;;;;;5033567;28;21331;-75
2023/09/11 12:13:56;;;;;;;17.33;9.15;;;;;;;;;;5030807;28;20049;-75
2023/09/11 12:16:23;;;;;;;17.33;8.93;;;;;;;;;;5030622;28;20079;-75
2023/09/11 12:18:49;;;;;;;18.13;10.23;;;;;;;;;;5028598;28;20052;-75
2023/09/11 12:21:15;;;;;;;12.23;8.45;;;;;;;;;;5019271;28;20051;-75
2023/09/11 12:23:41;;;;;;;17.90;9.10;;;;;;;;;;5014005;28;20057;-75
2023/09/11 12:26:07;;;;;;;17.63;8.90;;;;;;;;;;5032833;28;20533;-75
2023/09/11 12:28:34;;;;;;;20.67;9.63;;;;;;;;;;5035498;28;20477;-75
2023/09/11 12:31:00;;;;;;;16.15;6.38;;;;;;;;;;5028086;28;20735;-75
2023/09/11 12:33:34;;;;;;;10.57;7.90;;;;;;;;;;5007105;28;20056;-75
2023/09/11 12:36:00;;;;;;;10.38;7.60;;;;;;;;;;5023775;28;20799;-75
2023/09/11 12:38:27;;;;;;;11.15;7.07;;;;;;;;;;5024473;28;20049;-75
2023/09/11 12:40:53;;;;;;;11.65;6.93;;;;;;;;;;5023691;28;20086;-75
2023/09/11 12:43:20;;;;;;;18.42;7.53;;;;;;;;;;5025735;28;20425;-74
2023/09/11 12:45:46;;;;;;;13.05;6.95;;;;;;;;;;5038489;28;20049;-74
2023/09/11 12:48:12;;;;;;;11.02;6.15;;;;;;;;;;5023981;28;20045;-74
2023/09/11 12:50:40;;;;;;;17.40;6.72;;;;;;;;;;5040661;28;20036;-74
2023/09/11 12:53:06;;;;;;;16.85;6.95;;;;;;;;;;5023041;28;20048;-74
2023/09/11 12:55:32;;;;;;;13.18;6.22;;;;;;;;;;5035344;28;20135;-75
2023/09/11 12:57:59;;;;;;;14.73;7.05;;;;;;;;;;5020708;28;21905;-74
2023/09/11 13:00:29;;;;;;;17.67;6.65;;;;;;;;;;5034605;28;20953;-74
2023/09/11 13:02:56;;;;;;;8.60;6.75;;;;;;;;;;5019254;28;20055;-74
2023/09/11 13:05:23;;;;;;;15.35;7.72;;;;;;;;;;5033579;28;20045;-74
2023/09/11 13:07:49;;;;;;;13.30;6.53;;;;;;;;;;5036873;28;20194;-75
2023/09/11 13:10:16;;;;;;;13.82;7.40;;;;;;;;;;5036931;28;20049;-75
2023/09/11 13:12:43;;;;;;;16.98;6.88;;;;;;;;;;5034384;28;20041;-74
2023/09/11 13:15:10;;;;;;;11.35;5.95;;;;;;;;;;5016621;28;20060;-75
2023/09/11 13:17:36;;;;;;;11.98;5.18;;;;;;;;;;5032679;28;20095;-74
2023/09/11 13:20:03;;;;;;;14.70;5.75;;;;;;;;;;5034691;28;20055;-74
2023/09/11 13:22:30;;;;;;;11.07;5.15;;;;;;;;;;5016839;28;20048;-74
2023/09/11 13:24:56;;;;;;;11.55;6.00;;;;;;;;;;5035615;28;20718;-73
2023/09/11 13:27:22;;;;;;;16.55;6.30;;;;;;;;;;5034889;28;20164;-74
2023/09/11 13:29:48;;;;;;;10.82;6.03;;;;;;;;;;5001526;28;20041;-74
2023/09/11 13:32:16;;;;;;;14.23;6.60;;;;;;;;;;5036754;28;20131;-73
2023/09/11 13:34:42;;;;;;;12.88;7.25;;;;;;;;;;5032636;28;20052;-74
2023/09/11 13:37:09;;;;;;;18.85;6.72;;;;;;;;;;5032311;28;20033;-74
2023/09/11 13:39:35;;;;;;;12.98;6.35;;;;;;;;;;5016448;28;20171;-74
2023/09/11 13:42:01;;;;;;;8.07;5.50;;;;;;;;;;5013137;28;20824;-74
2023/09/11 13:44:27;;;;;;;10.48;6.68;;;;;;;;;;5033755;28;20111;-73
2023/09/11 13:46:53;;;;;;;10.45;5.93;;;;;;;;;;5031677;28;20080;-77
2023/09/11 13:49:19;;;;;;;10.65;5.18;;;;;;;;;;5017769;28;20041;-77
2023/09/11 13:51:46;;;;;;;12.55;5.82;;;;;;;;;;5019966;28;20049;-77
2023/09/11 13:54:12;;;;;;;11.30;5.50;;;;;;;;;;4999760;28;20127;-78
2023/09/11 13:56:38;;;;;;;8.77;4.78;;;;;;;;;;5004774;28;20481;-78
2023/09/11 13:59:04;;;;;;;8.80;4.72;;;;;;;;;;5010974;28;20075;-77
2023/09/11 14:01:30;;;;;;;9.57;4.78;;;;;;;;;;5032090;28;20092;-78
2023/09/11 14:03:56;;;;;;;9.93;5.07;;;;;;;;;;5031877;28;20049;-78
2023/09/11 14:06:24;;;;;;;9.85;4.68;;;;;;;;;;5029178;28;20069;-77
2023/09/11 14:08:50;;;;;;;9.82;4.18;;;;;;;;;;5013421;28;20045;-77
2023/09/11 14:11:16;;;;;;;9.55;4.20;;;;;;;;;;5017823;28;20247;-78
2023/09/11 14:13:42;;;;;;;10.32;5.15;;;;;;;;;;5034570;28;20051;-77
2023/09/11 14:16:08;;;;;;;9.10;4.60;;;;;;;;;;5018594;28;20063;-77
2023/09/11 14:18:34;;;;;;;12.43;4.63;;;;;;;;;;5018439;28;20049;-77
2023/09/11 14:21:01;;;;;;;9.40;5.25;;;;;;;;;;5017646;28;20094;-76